createdAt,value
2022-10-07T00:01:53.000Z,102081.13
2022-10-07T00:06:51.869Z,102088.38
2022-10-07T00:11:51.978Z,102097.47
2022-10-07T00:16:50.744Z,102096.78
2022-10-07T00:21:49.488Z,102095.97
2022-10-07T00:26:48.200Z,102085.53
2022-10-07T00:31:48.307Z,102105.06
2022-10-07T00:36:50.170Z,102107.88
2022-10-07T00:41:51.336Z,102101.13
2022-10-07T00:46:52.352Z,102103.00
2022-10-07T00:51:53.145Z,102099.84
2022-10-07T00:56:53.681Z,102098.53
2022-10-07T01:01:53.793Z,102090.50
2022-10-07T01:06:52.580Z,102096.75
2022-10-07T01:11:59.151Z,102085.00
2022-10-07T01:17:06.004Z,102089.63
2022-10-07T01:22:17.762Z,102090.75
2022-10-07T01:27:20.109Z,102093.53
2022-10-07T01:32:27.007Z,102092.94
2022-10-07T01:37:29.734Z,102095.00
2022-10-07T01:42:30.892Z,102089.94
2022-10-07T01:47:30.180Z,102089.16
2022-10-07T01:52:45.146Z,102085.97
2022-10-07T01:57:54.488Z,102089.13
2022-10-07T02:03:26.262Z,102093.50
2022-10-07T02:08:33.801Z,102103.16
2022-10-07T02:13:39.526Z,102095.22
2022-10-07T02:18:45.401Z,102101.44
2022-10-07T02:23:47.642Z,102115.66
2022-10-07T02:28:50.729Z,102115.03
2022-10-07T02:33:53.275Z,102116.81
2022-10-07T02:38:53.769Z,102121.91
2022-10-07T02:43:59.481Z,102123.44
2022-10-07T02:49:00.798Z,102129.44
2022-10-07T02:54:03.490Z,102131.13
2022-10-07T02:59:07.116Z,102138.63
2022-10-07T03:04:07.325Z,102131.94
2022-10-07T03:09:07.038Z,102121.69
2022-10-07T03:14:07.897Z,102118.19
2022-10-07T03:19:07.317Z,102126.09
2022-10-07T03:24:14.317Z,102118.41
2022-10-07T03:29:18.907Z,102116.94
2022-10-07T03:34:18.246Z,102112.69
2022-10-07T03:39:19.682Z,102112.09
2022-10-07T03:44:22.562Z,102102.72
2022-10-07T03:49:22.765Z,102104.72
2022-10-07T03:54:21.738Z,102105.66
2022-10-07T03:59:22.147Z,102111.03
2022-10-07T04:04:22.162Z,102111.88
2022-10-07T04:09:21.011Z,102118.94
2022-10-07T04:14:26.896Z,102123.31
2022-10-07T04:19:28.105Z,102118.81
2022-10-07T04:24:27.271Z,102118.94
2022-10-07T04:29:28.883Z,102127.25
2022-10-07T04:34:27.798Z,102134.19
2022-10-07T04:39:42.838Z,102137.91
2022-10-07T04:44:47.071Z,102136.63
2022-10-07T04:49:46.229Z,102144.66
2022-10-07T04:54:45.075Z,102143.84
2022-10-07T04:59:43.819Z,102146.78
2022-10-07T05:04:50.255Z,102153.13
2022-10-07T05:09:49.695Z,102160.09
2022-10-07T05:14:48.484Z,102158.41
2022-10-07T05:19:50.075Z,102151.69
2022-10-07T05:24:48.879Z,102164.03
2022-10-07T05:29:47.799Z,102169.97
2022-10-07T05:34:46.843Z,102170.81
2022-10-07T05:39:47.490Z,102187.47
2022-10-07T05:44:50.606Z,102192.53
2022-10-07T05:49:51.091Z,102205.84
2022-10-07T05:54:51.999Z,102207.50
2022-10-07T05:59:52.897Z,102208.91
2022-10-07T06:04:53.520Z,102207.84
2022-10-07T06:10:11.317Z,102215.13
2022-10-07T06:15:12.280Z,102208.91
2022-10-07T06:20:15.249Z,102202.97
2022-10-07T06:25:16.789Z,102196.47
2022-10-07T06:30:17.142Z,102191.19
2022-10-07T06:35:16.129Z,102193.31
2022-10-07T06:40:16.675Z,102205.88
2022-10-07T06:45:15.899Z,102209.75
2022-10-07T06:50:15.206Z,102207.81
2022-10-07T06:55:17.670Z,102210.78
2022-10-07T07:00:16.915Z,102203.09
2022-10-07T07:05:17.230Z,102204.09
2022-10-07T07:10:19.386Z,102203.13
2022-10-07T07:15:23.121Z,102206.97
2022-10-07T07:20:22.075Z,102210.22
2022-10-07T07:25:22.783Z,102217.16
2022-10-07T07:30:24.399Z,102221.25
2022-10-07T07:35:25.563Z,102227.59
2022-10-07T07:40:26.416Z,102216.00
2022-10-07T07:45:26.490Z,102215.19
2022-10-07T07:50:27.318Z,102212.63
2022-10-07T07:55:29.494Z,102212.81
2022-10-07T08:00:28.432Z,102209.84
2022-10-07T08:05:36.046Z,102207.44
2022-10-07T08:10:37.250Z,102197.06
2022-10-07T08:15:36.176Z,102194.13
2022-10-07T08:20:36.044Z,102182.97
2022-10-07T08:25:37.873Z,102186.72
2022-10-07T08:30:38.657Z,102178.06
2022-10-07T08:35:37.973Z,102173.38
2022-10-07T08:40:38.559Z,102168.34
2022-10-07T08:45:37.421Z,102166.28
2022-10-07T08:50:47.216Z,102151.81
2022-10-07T08:55:51.680Z,102151.03
2022-10-07T09:00:56.967Z,102149.88
2022-10-07T09:05:57.554Z,102149.50
2022-10-07T09:11:15.845Z,102141.81
2022-10-07T09:16:19.616Z,102136.38
2022-10-07T09:21:23.637Z,102125.97
2022-10-07T09:26:24.077Z,102123.22
2022-10-07T09:31:26.161Z,102108.22
2022-10-07T09:36:26.279Z,102098.03
2022-10-07T09:41:32.070Z,102086.75
2022-10-07T09:46:37.573Z,102075.00
2022-10-07T09:51:36.368Z,102073.56
2022-10-07T09:56:39.599Z,102061.94
2022-10-07T10:01:41.900Z,102059.44
2022-10-07T10:06:47.264Z,102055.19
2022-10-07T10:11:47.742Z,102049.03
2022-10-07T10:16:47.743Z,102034.63
2022-10-07T10:21:53.104Z,102017.97
2022-10-07T10:27:07.429Z,102006.88
2022-10-07T10:32:25.405Z,101997.63
2022-10-07T10:37:34.011Z,101986.00
2022-10-07T10:42:48.692Z,101973.63
2022-10-07T10:48:03.437Z,101972.19
2022-10-07T10:53:15.012Z,101963.28
2022-10-07T10:58:28.063Z,101955.41
2022-10-07T11:03:51.607Z,101941.28
2022-10-07T11:08:52.852Z,101935.78
2022-10-07T11:13:57.850Z,101921.66
2022-10-07T11:18:59.327Z,101918.78
2022-10-07T11:24:04.896Z,101903.69
2022-10-07T11:29:13.944Z,101899.13
2022-10-07T11:34:18.602Z,101898.56
2022-10-07T11:39:17.391Z,101881.03
2022-10-07T11:44:23.648Z,101863.19
2022-10-07T11:49:29.645Z,101862.47
2022-10-07T11:54:32.919Z,101862.59
2022-10-07T11:59:46.047Z,101861.91
2022-10-07T12:04:44.774Z,101855.81
2022-10-07T12:09:57.221Z,101860.66
2022-10-07T12:15:04.725Z,101868.38
2022-10-07T12:20:45.256Z,101861.53
2022-10-07T12:25:47.013Z,101855.78
2022-10-07T12:30:53.914Z,101856.13
2022-10-07T12:35:54.539Z,101849.78
2022-10-07T12:41:03.539Z,101846.28
2022-10-07T12:46:07.461Z,101834.41
2022-10-07T12:51:13.777Z,101843.78
2022-10-07T12:56:21.114Z,101835.34
2022-10-07T13:01:32.910Z,101835.53
2022-10-07T13:07:03.515Z,101822.81
2022-10-07T13:12:14.044Z,101819.94
2022-10-07T13:17:30.823Z,101811.44
2022-10-07T13:22:31.515Z,101824.38
2022-10-07T13:27:34.786Z,101816.69
2022-10-07T13:32:36.460Z,101811.88
2022-10-07T13:37:37.238Z,101799.69
2022-10-07T13:42:38.363Z,101799.63
2022-10-07T13:47:38.432Z,101803.78
2022-10-07T13:52:40.993Z,101799.97
2022-10-07T13:57:44.324Z,101791.47
2022-10-07T14:02:45.304Z,101789.13
2022-10-07T14:07:44.297Z,101774.53
2022-10-07T14:12:46.415Z,101784.66
2022-10-07T14:17:49.735Z,101772.63
2022-10-07T14:22:51.283Z,101783.13
2022-10-07T14:28:07.770Z,101771.38
2022-10-07T14:33:31.315Z,101782.41
2022-10-07T14:38:30.337Z,101785.88
2022-10-07T14:43:31.937Z,101785.00
2022-10-07T14:48:32.200Z,101771.38
2022-10-07T14:53:31.126Z,101769.66
2022-10-07T14:58:29.888Z,101775.03
2022-10-07T15:03:29.525Z,101773.63
2022-10-07T15:08:30.322Z,101777.78
2022-10-07T15:13:29.279Z,101777.50
2022-10-07T15:18:27.941Z,101777.03
2022-10-07T15:23:28.460Z,101783.47
2022-10-07T15:28:29.642Z,101781.50
2022-10-07T15:33:28.630Z,101780.72
2022-10-07T15:38:27.916Z,101788.81
2022-10-07T15:43:28.459Z,101788.81
2022-10-07T15:48:28.698Z,101792.13
2022-10-07T15:53:27.406Z,101801.41
2022-10-07T15:58:30.478Z,101803.09
2022-10-07T16:03:33.555Z,101812.63
2022-10-07T16:08:33.047Z,101813.56
2022-10-07T16:13:36.767Z,101816.84
2022-10-07T16:18:37.114Z,101824.19
2022-10-07T16:23:37.562Z,101818.00
2022-10-07T16:28:57.871Z,101825.75
2022-10-07T16:33:57.088Z,101825.78
2022-10-07T16:38:59.748Z,101826.19
2022-10-07T16:44:01.232Z,101838.16
2022-10-07T16:49:00.762Z,101836.22
2022-10-07T16:54:02.993Z,101843.50
2022-10-07T16:59:06.320Z,101837.41
2022-10-07T17:04:05.318Z,101843.84
2022-10-07T17:09:05.390Z,101838.28
2022-10-07T17:14:07.590Z,101842.63
2022-10-07T17:19:07.346Z,101853.66
2022-10-07T17:24:06.551Z,101847.78
2022-10-07T17:29:08.831Z,101847.78
2022-10-07T17:34:08.498Z,101838.91
2022-10-07T17:39:07.740Z,101840.06
2022-10-07T17:44:10.473Z,101838.41
2022-10-07T17:49:11.638Z,101842.66
2022-10-07T17:54:12.487Z,101844.28
2022-10-07T17:59:12.672Z,101838.47
2022-10-07T18:04:14.979Z,101836.50
2022-10-07T18:09:18.284Z,101839.03
2022-10-07T18:14:36.073Z,101838.69
2022-10-07T18:19:35.058Z,101851.97
2022-10-07T18:24:33.928Z,101843.69
2022-10-07T18:29:36.143Z,101847.81
2022-10-07T18:34:34.766Z,101844.72
2022-10-07T18:39:33.387Z,101835.13
2022-10-07T18:44:33.892Z,101830.25
2022-10-07T18:49:32.656Z,101823.78
2022-10-07T18:54:31.319Z,101838.72
2022-10-07T18:59:30.058Z,101827.63
2022-10-07T19:04:31.001Z,101825.41
2022-10-07T19:09:30.211Z,101826.00
2022-10-07T19:14:32.204Z,101821.97
2022-10-07T19:19:34.260Z,101835.19
2022-10-07T19:24:46.801Z,101838.56
2022-10-07T19:29:45.446Z,101828.66
2022-10-07T19:34:45.507Z,101826.44
2022-10-07T19:39:44.211Z,101832.22
2022-10-07T19:44:43.371Z,101827.13
2022-10-07T19:49:42.138Z,101827.53
2022-10-07T19:54:45.859Z,101829.69
2022-10-07T19:59:49.704Z,101826.00
2022-10-07T20:04:49.071Z,101832.50
2022-10-07T20:09:49.341Z,101827.53
2022-10-07T20:14:48.040Z,101830.09
2022-10-07T20:19:46.749Z,101829.69
2022-10-07T20:24:45.453Z,101827.38
2022-10-07T20:29:58.206Z,101830.22
2022-10-07T20:34:56.920Z,101832.38
2022-10-07T20:40:12.834Z,101833.69
2022-10-07T20:45:12.866Z,101842.00
2022-10-07T20:50:11.898Z,101842.44
2022-10-07T20:55:14.185Z,101842.84
2022-10-07T21:00:17.184Z,101837.47
2022-10-07T21:05:16.002Z,101847.84
2022-10-07T21:10:14.863Z,101848.38
2022-10-07T21:15:15.067Z,101840.78
2022-10-07T21:20:13.866Z,101834.28
2022-10-07T21:25:13.107Z,101832.13
2022-10-07T21:30:12.581Z,101825.31
2022-10-07T21:35:12.688Z,101819.31
2022-10-07T21:40:11.635Z,101816.88
2022-10-07T21:45:11.229Z,101805.66
2022-10-07T21:50:11.351Z,101796.94
2022-10-07T21:55:11.763Z,101787.19
2022-10-07T22:00:12.370Z,101792.53
2022-10-07T22:05:11.687Z,101787.53
2022-10-07T22:10:12.085Z,101781.34
2022-10-07T22:15:12.013Z,101773.25
2022-10-07T22:20:11.045Z,101775.91
2022-10-07T22:25:11.301Z,101778.69
2022-10-07T22:30:11.340Z,101781.75
2022-10-07T22:35:30.324Z,101781.09
2022-10-07T22:40:30.553Z,101783.13
2022-10-07T22:45:29.251Z,101782.78
2022-10-07T22:50:27.896Z,101774.09
2022-10-07T22:55:27.218Z,101770.03
2022-10-07T23:00:27.395Z,101770.47
2022-10-07T23:05:26.139Z,101776.59
2022-10-07T23:10:24.782Z,101756.59
2022-10-07T23:15:23.536Z,101759.75
2022-10-07T23:20:25.665Z,101757.19
2022-10-07T23:25:26.397Z,101759.41
2022-10-07T23:30:25.197Z,101764.47
2022-10-07T23:35:25.327Z,101755.84
2022-10-07T23:40:24.135Z,101764.56
2022-10-07T23:45:22.741Z,101753.16
2022-10-07T23:50:22.211Z,101755.09
2022-10-07T23:55:22.413Z,101753.38
